Time;durP1;ratioP1;P1;durP2;ratioP2;P2;SDS_P1;SDS_P2;PMS_P1;PMS_P2;Temp;Humidity;BMP_temperature;BMP_pressure;BME280_temperature;BME280_humidity;BME280_pressure;Samples;Min_cycle;Max_cycle;Signal;HPM_P1;HPM_P2
2023/04/24 00:02:10;;;;;;;11.32;8.05;;;;;;;9.03;100.00;99727.03;5032871;28;20583;-54
2023/04/24 00:04:40;;;;;;;11.93;8.15;;;;;;;9.03;100.00;99735.72;5033135;28;20049;-57
2023/04/24 00:07:08;;;;;;;11.40;8.98;;;;;;;9.03;100.00;99737.53;5032937;28;20048;-54
2023/04/24 00:09:38;;;;;;;12.00;8.95;;;;;;;9.01;100.00;99731.56;5028765;28;20056;-55
2023/04/24 00:12:06;;;;;;;13.32;9.20;;;;;;;9.05;100.00;99735.59;5029884;28;20427;-56
2023/04/24 00:14:34;;;;;;;13.90;9.90;;;;;;;9.04;100.00;99731.31;5032830;28;20052;-55
2023/04/24 00:17:03;;;;;;;12.60;9.77;;;;;;;9.00;100.00;99737.75;5032333;28;20504;-56
2023/04/24 00:19:31;;;;;;;11.68;9.02;;;;;;;8.94;100.00;99736.41;5032339;28;20099;-54
2023/04/24 00:21:59;;;;;;;9.48;6.95;;;;;;;8.91;100.00;99753.22;5029775;28;20049;-55
2023/04/24 00:24:27;;;;;;;9.02;6.32;;;;;;;8.92;100.00;99739.16;5029248;28;20382;-55
2023/04/24 00:26:57;;;;;;;9.10;5.88;;;;;;;8.96;100.00;99743.22;5032615;28;20083;-54
2023/04/24 00:29:25;;;;;;;10.15;6.70;;;;;;;8.97;100.00;99746.66;5032592;28;20052;-53
2023/04/24 00:31:53;;;;;;;13.02;8.55;;;;;;;8.93;100.00;99759.19;5030366;28;20132;-55
2023/04/24 00:34:21;;;;;;;11.60;8.48;;;;;;;8.86;100.00;99759.75;5027962;28;20103;-54
2023/04/24 00:36:52;;;;;;;13.75;9.15;;;;;;;8.84;100.00;99746.78;5028082;28;20049;-54
2023/04/24 00:39:20;;;;;;;13.50;9.65;;;;;;;8.83;100.00;99747.72;5031275;28;20053;-55
2023/04/24 00:41:48;;;;;;;11.32;7.47;;;;;;;8.86;100.00;99759.75;5032445;28;20045;-54
2023/04/24 00:44:18;;;;;;;9.73;5.97;;;;;;;8.89;100.00;99755.13;5032705;28;20076;-54
2023/04/24 00:46:51;;;;;;;8.90;5.50;;;;;;;8.93;100.00;99746.09;5032567;28;20116;-54
2023/04/24 00:49:19;;;;;;;9.27;5.28;;;;;;;8.93;100.00;99755.72;5032023;28;20401;-54
2023/04/24 00:51:49;;;;;;;7.40;4.50;;;;;;;8.86;100.00;99755.38;5028157;28;20068;-54
2023/04/24 00:54:20;;;;;;;7.25;3.90;;;;;;;8.85;100.00;99756.31;5029957;28;20045;-54
2023/04/24 00:56:48;;;;;;;7.65;4.78;;;;;;;8.89;100.00;99751.66;5031137;28;20099;-58
2023/04/24 00:59:18;;;;;;;12.88;8.85;;;;;;;8.88;100.00;99761.31;5029849;28;20124;-58
2023/04/24 01:01:46;;;;;;;17.92;12.50;;;;;;;8.91;100.00;99750.59;5029632;28;20136;-58
2023/04/24 01:04:15;;;;;;;18.92;13.73;;;;;;;8.94;100.00;99746.91;5035898;28;20045;-58
2023/04/24 01:06:45;;;;;;;22.23;15.07;;;;;;;8.98;100.00;99744.91;5036436;28;20049;-57
2023/04/24 01:09:14;;;;;;;19.90;14.68;;;;;;;8.98;100.00;99758.00;5034510;28;20069;-59
2023/04/24 01:11:42;;;;;;;22.45;14.90;;;;;;;8.99;100.00;99749.19;5032850;28;20050;-59
2023/04/24 01:14:11;;;;;;;23.35;15.73;;;;;;;8.93;100.00;99750.47;5032458;28;20711;-59
2023/04/24 01:16:40;;;;;;;21.23;14.93;;;;;;;8.93;100.00;99758.34;5032537;28;20033;-59
2023/04/24 01:19:11;;;;;;;23.05;16.02;;;;;;;8.85;100.00;99761.56;5033683;28;20408;-59
2023/04/24 01:21:40;;;;;;;24.15;16.00;;;;;;;8.88;100.00;99750.00;5036099;28;20084;-57
2023/04/24 01:24:09;;;;;;;22.65;15.52;;;;;;;8.90;100.00;99755.97;5036077;28;20041;-58
2023/04/24 01:26:37;;;;;;;21.58;15.35;;;;;;;8.89;100.00;99749.91;5033459;28;20034;-57
2023/04/24 01:29:06;;;;;;;20.10;14.73;;;;;;;8.87;100.00;99757.03;5032119;28;20049;-58
2023/04/24 01:31:35;;;;;;;22.83;16.33;;;;;;;8.90;100.00;99746.31;5032006;28;20049;-58
2023/04/24 01:34:04;;;;;;;20.20;14.90;;;;;;;8.91;100.00;99747.16;5031822;28;20772;-58
2023/04/24 01:36:33;;;;;;;21.05;15.45;;;;;;;8.91;100.00;99753.22;5031518;28;20053;-58
2023/04/24 01:39:01;;;;;;;21.85;15.13;;;;;;;8.91;100.00;99758.47;5031943;28;20431;-57
2023/04/24 01:41:33;;;;;;;20.02;14.45;;;;;;;8.97;100.00;99746.66;5035074;28;20048;-58
2023/04/24 01:44:03;;;;;;;;;;;;;;;8.98;100.00;99750.97;5036047;28;20041;-57
2023/04/24 01:46:33;;;;;;;19.95;14.13;;;;;;;8.93;100.00;99745.22;5035483;28;19928;-58
2023/04/24 01:49:02;;;;;;;21.75;15.25;;;;;;;8.94;100.00;99745.16;5035487;28;20041;-58
2023/04/24 01:51:31;;;;;;;21.35;14.32;;;;;;;8.92;100.00;99744.41;5032558;28;20136;-58
2023/04/24 01:53:59;;;;;;;19.38;14.43;;;;;;;8.86;100.00;99739.66;5031573;28;20543;-59
2023/04/24 01:56:30;;;;;;;19.17;14.13;;;;;;;8.91;100.00;99742.72;5034570;28;20496;-59
2023/04/24 01:59:01;;;;;;;20.75;14.43;;;;;;;8.87;100.00;99737.84;5031784;28;20608;-59
2023/04/24 02:01:35;;;;;;;21.23;14.77;;;;;;;8.83;100.00;99739.03;5033100;28;20480;-58
2023/04/24 02:04:04;;;;;;;22.42;14.88;;;;;;;8.78;100.00;99742.84;5031431;28;20072;-58
2023/04/24 02:06:32;;;;;;;22.73;15.65;;;;;;;8.84;100.00;99746.78;5029824;28;20064;-58
2023/04/24 02:09:01;;;;;;;22.77;15.40;;;;;;;8.87;100.00;99753.56;5031705;28;20057;-59
2023/04/24 02:11:29;;;;;;;20.73;15.07;;;;;;;8.84;100.00;99740.72;5031772;28;20133;-58
2023/04/24 02:14:01;;;;;;;21.60;16.35;;;;;;;8.88;100.00;99742.97;5032865;28;20104;-58
2023/04/24 02:16:31;;;;;;;24.75;16.23;;;;;;;8.89;100.00;99743.78;5035102;28;20099;-58
2023/04/24 02:19:00;;;;;;;23.17;16.63;;;;;;;8.85;100.00;99737.09;5034945;28;20053;-59
2023/04/24 02:21:28;;;;;;;24.77;16.52;;;;;;;8.78;100.00;99742.84;5029871;28;20045;-59
2023/04/24 02:23:56;;;;;;;23.30;16.40;;;;;;;8.83;100.00;99749.50;5030704;28;20045;-58
2023/04/24 02:26:24;;;;;;;25.02;17.52;;;;;;;8.82;100.00;99735.59;5034808;28;20100;-58
2023/04/24 02:28:52;;;;;;;25.02;17.00;;;;;;;8.81;100.00;99741.78;5034785;28;20104;-59
2023/04/24 02:31:25;;;;;;;25.08;16.10;;;;;;;8.83;100.00;99750.34;5034723;28;20080;-59
2023/04/24 02:33:53;;;;;;;24.25;16.45;;;;;;;8.80;100.00;99745.34;5035092;28;20123;-59
2023/04/24 02:36:22;;;;;;;24.10;16.80;;;;;;;8.85;100.00;99745.84;5034640;28;20037;-59
2023/04/24 02:38:50;;;;;;;24.33;15.90;;;;;;;8.90;100.00;99748.09;5034804;28;20048;-59
2023/04/24 02:41:18;;;;;;;24.77;16.05;;;;;;;8.92;100.00;99748.81;5032858;28;20056;-59
2023/04/24 02:43:46;;;;;;;23.13;16.83;;;;;;;8.93;100.00;99743.47;5031068;28;20041;-60
2023/04/24 02:46:14;;;;;;;23.35;15.07;;;;;;;8.87;100.00;99746.53;5031002;28;20073;-58
2023/04/24 02:48:44;;;;;;;21.77;14.10;;;;;;;8.88;100.00;99736.91;5030945;28;20053;-58
2023/04/24 02:51:12;;;;;;;21.98;15.00;;;;;;;8.80;100.00;99748.78;5029869;28;20053;-58
2023/04/24 02:53:40;;;;;;;22.80;14.77;;;;;;;8.80;100.00;99742.72;5032527;28;20461;-58
2023/04/24 02:56:08;;;;;;;20.65;14.63;;;;;;;8.82;100.00;99746.06;5034073;28;20056;-58
2023/04/24 02:58:39;;;;;;;23.42;15.20;;;;;;;8.79;100.00;99748.91;5029725;28;20052;-59
2023/04/24 03:01:07;;;;;;;20.58;15.00;;;;;;;8.72;100.00;99742.47;5030219;28;20570;-59
2023/04/24 03:03:35;;;;;;;21.45;15.13;;;;;;;8.78;100.00;99752.47;5030700;28;20053;-58
2023/04/24 03:06:05;;;;;;;24.05;14.90;;;;;;;8.82;100.00;99751.31;5028780;28;20064;-59
2023/04/24 03:08:34;;;;;;;22.45;15.30;;;;;;;8.78;100.00;99752.47;5030371;28;20054;-58
2023/04/24 03:11:02;;;;;;;21.85;15.07;;;;;;;8.73;100.00;99759.88;5030331;28;20496;-58
2023/04/24 03:13:30;;;;;;;22.20;15.07;;;;;;;8.74;100.00;99756.28;5030052;28;20049;-58
2023/04/24 03:15:58;;;;;;;21.75;14.77;;;;;;;8.74;100.00;99759.75;5029579;28;20080;-57
2023/04/24 03:18:26;;;;;;;23.15;15.48;;;;;;;8.75;100.00;99763.19;5032024;28;20049;-57
2023/04/24 03:20:54;;;;;;;22.15;14.93;;;;;;;8.80;100.00;99769.75;5028979;28;20045;-58
2023/04/24 03:23:24;;;;;;;22.35;16.17;;;;;;;8.71;100.00;99756.50;5030757;28;20442;-58
2023/04/24 03:25:52;;;;;;;20.67;14.90;;;;;;;8.72;100.00;99761.63;5029841;28;20037;-58
2023/04/24 03:28:20;;;;;;;21.70;15.48;;;;;;;8.76;100.00;99764.88;5030147;28;20501;-57
2023/04/24 03:30:48;;;;;;;23.08;14.73;;;;;;;8.74;100.00;99774.63;5029769;28;20404;-57
2023/04/24 03:33:19;;;;;;;23.00;15.75;;;;;;;8.74;100.00;99778.09;5032142;28;20045;-57
2023/04/24 03:35:47;;;;;;;21.08;15.35;;;;;;;8.76;100.00;99770.13;5033568;28;20049;-58
2023/04/24 03:38:15;;;;;;;25.67;16.98;;;;;;;8.73;100.00;99772.97;5030290;28;20388;-58
2023/04/24 03:40:44;;;;;;;29.77;19.85;;;;;;;8.69;100.00;99779.38;5030126;28;20056;-58
2023/04/24 03:43:15;;;;;;;30.75;21.83;;;;;;;8.67;100.00;99765.53;5030282;28;20095;-58
2023/04/24 03:45:43;;;;;;;31.33;22.60;;;;;;;8.67;100.00;99776.03;5030946;28;20443;-57
2023/04/24 03:48:11;;;;;;;32.13;23.50;;;;;;;8.57;100.00;99771.47;5028938;28;20530;-58
2023/04/24 03:50:39;;;;;;;33.30;24.45;;;;;;;8.56;100.00;99776.81;5027073;28;20050;-58
2023/04/24 03:53:07;;;;;;;34.80;24.60;;;;;;;8.58;100.00;99770.53;5032970;28;20135;-58
2023/04/24 03:55:36;;;;;;;39.85;26.42;;;;;;;8.53;100.00;99780.50;5033235;28;20527;-58
2023/04/24 03:58:05;;;;;;;35.55;25.50;;;;;;;8.49;100.00;99784.28;5032986;28;20100;-58
2023/04/24 04:00:34;;;;;;;37.05;24.40;;;;;;;8.52;100.00;99778.00;5030563;28;20099;-57
2023/04/24 04:03:02;;;;;;;34.97;25.65;;;;;;;8.49;100.00;99775.59;5029609;28;20050;-59
2023/04/24 04:05:30;;;;;;;36.80;25.20;;;;;;;8.49;100.00;99778.22;5032757;28;20045;-59
2023/04/24 04:07:59;;;;;;;38.47;26.30;;;;;;;8.50;100.00;99780.72;5033165;28;20069;-59
2023/04/24 04:10:27;;;;;;;33.50;24.13;;;;;;;8.48;100.00;99787.03;5032845;28;20111;-59
2023/04/24 04:12:55;;;;;;;31.42;23.98;;;;;;;8.42;100.00;99778.63;5033269;28;20041;-59
2023/04/24 04:15:24;;;;;;;37.22;25.83;;;;;;;8.38;100.00;99786.84;5029758;28;20560;-59
2023/04/24 04:17:53;;;;;;;33.90;24.00;;;;;;;8.36;100.00;99784.34;5028056;28;20061;-59
2023/04/24 04:20:21;;;;;;;34.95;24.25;;;;;;;8.34;100.00;99796.69;5028427;28;20056;-59
2023/04/24 04:22:49;;;;;;;36.90;25.13;;;;;;;8.39;100.00;99788.53;5032303;28;20053;-55
2023/04/24 04:25:19;;;;;;;34.80;22.83;;;;;;;8.29;100.00;99789.19;5032225;28;20512;-55
2023/04/24 04:27:47;;;;;;;34.50;23.40;;;;;;;8.32;100.00;99788.13;5032819;28;20393;-52
2023/04/24 04:30:16;;;;;;;34.28;22.98;;;;;;;8.35;100.00;99794.94;5032335;28;20049;-54
2023/04/24 04:32:45;;;;;;;33.13;22.92;;;;;;;8.24;100.00;99793.09;5029202;28;20053;-54
2023/04/24 04:35:13;;;;;;;31.20;22.55;;;;;;;8.26;100.00;99789.41;5028531;28;20451;-54
2023/04/24 04:37:41;;;;;;;36.30;23.23;;;;;;;8.28;100.00;99787.50;5036531;28;20436;-53
2023/04/24 04:40:11;;;;;;;30.40;21.10;;;;;;;8.27;100.00;99785.81;5034109;28;20049;-52
2023/04/24 04:42:40;;;;;;;29.17;20.15;;;;;;;8.27;100.00;99792.84;5032895;28;20133;-52
2023/04/24 04:45:11;;;;;;;31.85;21.10;;;;;;;8.28;100.00;99791.91;5034850;28;20137;-53
2023/04/24 04:47:40;;;;;;;27.25;20.77;;;;;;;8.22;100.00;99798.44;5036822;28;20485;-53
2023/04/24 04:50:11;;;;;;;29.58;19.65;;;;;;;8.20;100.00;99795.06;5036704;28;20088;-54
2023/04/24 04:52:39;;;;;;;29.05;20.63;;;;;;;8.17;100.00;99797.94;5036435;28;20568;-53
2023/04/24 04:55:08;;;;;;;31.67;18.98;;;;;;;8.23;100.00;99792.22;5033503;28;20152;-54
2023/04/24 04:57:36;;;;;;;31.27;19.95;;;;;;;8.18;100.00;99789.13;5030848;28;20053;-54
2023/04/24 05:00:06;;;;;;;28.60;19.38;;;;;;;8.19;100.00;99798.63;5032286;28;20042;-53
2023/04/24 05:02:34;;;;;;;33.53;20.55;;;;;;;8.11;100.00;99795.72;5033986;28;20057;-55
2023/04/24 05:05:03;;;;;;;27.27;18.90;;;;;;;8.15;100.00;99802.41;5036456;28;20123;-55
2023/04/24 05:07:36;;;;;;;29.80;20.05;;;;;;;8.14;100.00;99790.28;5036464;28;20080;-55
2023/04/24 05:10:05;;;;;;;24.17;18.45;;;;;;;8.09;100.00;99792.41;5035883;28;20033;-52
2023/04/24 05:12:33;;;;;;;28.08;19.15;;;;;;;8.08;100.00;99791.53;5032414;28;20096;-55
2023/04/24 05:15:01;;;;;;;25.77;18.05;;;;;;;8.10;100.00;99794.09;5033554;28;20103;-54
2023/04/24 05:17:29;;;;;;;26.10;17.20;;;;;;;8.11;100.00;99801.81;5036058;28;20065;-54
2023/04/24 05:19:57;;;;;;;27.70;18.30;;;;;;;8.11;100.00;99795.72;5036096;28;20100;-53
2023/04/24 05:22:25;;;;;;;26.38;17.67;;;;;;;8.05;100.00;99809.28;5035699;28;20049;-53
2023/04/24 05:24:55;;;;;;;26.48;17.50;;;;;;;7.99;100.00;99812.31;5035835;28;20299;-56
2023/04/24 05:27:23;;;;;;;24.35;16.73;;;;;;;7.99;100.00;99812.31;5035708;28;20080;-54
2023/04/24 05:29:51;;;;;;;26.60;17.58;;;;;;;8.03;100.00;99813.78;5033129;28;20049;-55
2023/04/24 05:32:19;;;;;;;28.38;18.48;;;;;;;8.03;100.00;99821.63;5032506;28;20045;-54
2023/04/24 05:34:47;;;;;;;26.40;17.35;;;;;;;8.04;100.00;99828.53;5034765;28;20431;-54
2023/04/24 05:37:15;;;;;;;22.98;16.13;;;;;;;8.09;100.00;99827.28;5034440;28;20080;-55
2023/04/24 05:39:44;;;;;;;26.55;16.65;;;;;;;8.06;100.00;99832.72;5034641;28;20042;-54
2023/04/24 05:42:13;;;;;;;25.20;16.25;;;;;;;8.11;100.00;99832.41;5032156;28;20045;-54
2023/04/24 05:44:41;;;;;;;23.92;15.55;;;;;;;8.20;100.00;99830.94;5033877;28;20119;-53
2023/04/24 05:47:09;;;;;;;23.13;14.93;;;;;;;8.16;100.00;99842.56;5031795;28;20045;-58
2023/04/24 05:49:37;;;;;;;21.55;13.70;;;;;;;8.19;100.00;99845.78;5030577;28;20046;-58
2023/04/24 05:52:08;;;;;;;20.98;13.95;;;;;;;8.24;100.00;99850.72;5031300;28;20452;-54
2023/04/24 05:54:39;;;;;;;20.45;13.50;;;;;;;8.27;100.00;99846.06;5031680;28;20049;-52
2023/04/24 05:57:07;;;;;;;20.52;13.00;;;;;;;8.34;100.00;99851.72;5032523;28;20053;-54
2023/04/24 05:59:38;;;;;;;20.40;14.30;;;;;;;8.36;100.00;99849.84;5031095;28;20037;-54
2023/04/24 06:02:07;;;;;;;19.73;13.88;;;;;;;8.35;100.00;99853.41;5031362;28;20567;-54
2023/04/24 06:04:37;;;;;;;19.55;12.23;;;;;;;8.41;100.00;99855.59;5029673;28;20073;-54
2023/04/24 06:07:06;;;;;;;19.58;13.35;;;;;;;8.44;100.00;99865.84;5032389;28;20197;-54
2023/04/24 06:09:34;;;;;;;19.70;13.88;;;;;;;8.49;100.00;99869.94;5034905;28;20092;-50
2023/04/24 06:12:02;;;;;;;19.95;14.20;;;;;;;8.52;100.00;99878.44;5035026;28;20489;-54
2023/04/24 06:14:32;;;;;;;19.50;13.43;;;;;;;8.53;100.00;99868.78;5035035;28;20046;-53
2023/04/24 06:17:02;;;;;;;19.73;13.43;;;;;;;8.54;100.00;99875.69;5034704;28;20049;-55
2023/04/24 06:19:32;;;;;;;19.80;13.73;;;;;;;8.56;100.00;99890.38;5034912;28;20037;-55
2023/04/24 06:22:03;;;;;;;21.38;14.43;;;;;;;8.57;100.00;99884.16;5035078;28;21141;-54
2023/04/24 06:24:32;;;;;;;20.60;14.07;;;;;;;8.61;100.00;99887.41;5031922;28;20385;-53
2023/04/24 06:27:02;;;;;;;18.45;13.38;;;;;;;8.67;100.00;99891.38;5030901;28;20408;-55
2023/04/24 06:29:30;;;;;;;20.27;13.82;;;;;;;8.66;100.00;99894.94;5031413;28;20053;-54
2023/04/24 06:31:58;;;;;;;20.42;13.75;;;;;;;8.69;100.00;99903.41;5034687;28;20091;-54
2023/04/24 06:34:28;;;;;;;19.00;13.68;;;;;;;8.72;100.00;99899.75;5034471;28;20053;-55
2023/04/24 06:36:56;;;;;;;18.83;13.18;;;;;;;8.72;100.00;99907.59;5034521;28;20049;-55
2023/04/24 06:39:24;;;;;;;16.70;12.18;;;;;;;8.76;100.00;99909.88;5034715;28;20041;-54
2023/04/24 06:41:52;;;;;;;17.05;11.88;;;;;;;8.78;100.00;99910.63;5034656;28;20128;-54
2023/04/24 06:44:20;;;;;;;15.32;11.15;;;;;;;8.84;100.00;99911.13;5034427;28;20057;-55
2023/04/24 06:46:48;;;;;;;15.43;11.15;;;;;;;8.89;100.00;99927.34;5034316;28;20389;-58
2023/04/24 06:49:17;;;;;;;16.95;10.38;;;;;;;8.88;100.00;99921.28;5031376;28;20091;-60
2023/04/24 06:51:46;;;;;;;14.80;10.10;;;;;;;8.93;100.00;99929.66;5030363;28;20045;-58
2023/04/24 06:54:14;;;;;;;11.98;8.48;;;;;;;8.98;100.00;99931.09;5033517;28;20107;-58
2023/04/24 06:56:42;;;;;;;13.38;9.27;;;;;;;8.94;100.00;99936.56;5030846;28;20057;-58
2023/04/24 06:59:10;;;;;;;13.18;8.40;;;;;;;9.00;100.00;99937.06;5030489;28;20045;-58
2023/04/24 07:01:38;;;;;;;12.35;8.70;;;;;;;9.05;100.00;99942.81;5033834;28;20044;-58
2023/04/24 07:04:06;;;;;;;11.95;7.80;;;;;;;9.01;100.00;99929.06;5033824;28;20037;-58
2023/04/24 07:06:35;;;;;;;12.00;7.78;;;;;;;9.03;100.00;99937.69;5030168;28;20052;-58
2023/04/24 07:09:05;;;;;;;12.27;8.27;;;;;;;9.12;100.00;99938.78;5029304;28;20444;-59
2023/04/24 07:11:33;;;;;;;11.80;7.72;;;;;;;9.24;100.00;99939.66;5030304;28;20057;-58
2023/04/24 07:14:02;;;;;;;12.00;7.75;;;;;;;9.26;100.00;99946.47;5030211;28;20149;-58
2023/04/24 07:16:30;;;;;;;10.00;6.68;;;;;;;9.25;100.00;99957.09;5032228;28;20455;-58
2023/04/24 07:18:58;;;;;;;9.80;6.18;;;;;;;9.27;100.00;99956.03;5033803;28;20084;-54
2023/04/24 07:21:27;;;;;;;7.85;4.72;;;;;;;9.29;100.00;99962.00;5033819;28;20045;-54
2023/04/24 07:23:55;;;;;;;8.77;5.57;;;;;;;9.29;100.00;99974.28;5033694;28;20126;-54
2023/04/24 07:26:24;;;;;;;6.25;3.55;;;;;;;9.16;100.00;99976.13;5033576;28;20077;-55
2023/04/24 07:28:52;;;;;;;7.35;4.00;;;;;;;9.19;100.00;99978.53;5033469;28;20526;-54
2023/04/24 07:31:21;;;;;;;7.95;3.75;;;;;;;9.16;100.00;99978.75;5031148;28;20400;-55
2023/04/24 07:33:50;;;;;;;3.88;2.22;;;;;;;9.08;100.00;99987.16;5029038;28;20057;-55
2023/04/24 07:36:19;;;;;;;5.53;2.50;;;;;;;9.05;100.00;99993.50;5033538;28;20061;-58
2023/04/24 07:38:47;;;;;;;6.50;2.70;;;;;;;9.06;100.00;99991.69;5033480;28;20037;-53
2023/04/24 07:41:15;;;;;;;4.85;2.67;;;;;;;9.00;100.00;99984.25;5033471;28;20392;-54
2023/04/24 07:43:45;;;;;;;6.00;2.67;;;;;;;9.04;100.00;99998.81;5031274;28;20088;-55
2023/04/24 07:46:13;;;;;;;4.13;2.08;;;;;;;8.96;100.00;100002.84;5029805;28;20099;-54
2023/04/24 07:48:41;;;;;;;4.53;1.90;;;;;;;8.91;100.00;100015.44;5030214;28;20086;-54
2023/04/24 07:51:13;;;;;;;3.70;1.60;;;;;;;8.73;100.00;100020.22;5031906;28;20060;-53
2023/04/24 07:53:41;;;;;;;4.70;2.38;;;;;;;8.74;100.00;100023.66;5030829;28;20099;-53
2023/04/24 07:56:09;;;;;;;5.03;2.58;;;;;;;8.61;100.00;100031.56;5029584;28;20539;-53
2023/04/24 07:58:37;;;;;;;6.43;3.40;;;;;;;8.58;100.00;100034.41;5032438;28;20049;-53
2023/04/24 08:01:10;;;;;;;7.30;4.00;;;;;;;8.52;100.00;100048.78;5029021;28;20049;-52
2023/04/24 08:03:38;;;;;;;8.10;4.53;;;;;;;8.52;100.00;100055.78;5030596;28;20073;-58
2023/04/24 08:06:07;;;;;;;9.93;5.25;;;;;;;8.56;100.00;100068.59;5032999;28;20125;-58
2023/04/24 08:08:35;;;;;;;11.25;6.20;;;;;;;8.36;100.00;100071.72;5030594;28;20041;-58
2023/04/24 08:11:03;;;;;;;8.98;5.50;;;;;;;8.40;100.00;100078.41;5027602;28;20042;-58
2023/04/24 08:13:32;;;;;;;13.27;6.32;;;;;;;8.37;100.00;100089.09;5032743;28;20057;-58
2023/04/24 08:16:00;;;;;;;10.75;6.32;;;;;;;8.37;100.00;100105.66;5032701;28;20045;-58
2023/04/24 08:18:29;;;;;;;11.60;5.78;;;;;;;8.32;100.00;100101.66;5032865;28;20052;-58
2023/04/24 08:21:01;;;;;;;11.30;6.43;;;;;;;8.36;100.00;100108.38;5032543;28;20077;-58
2023/04/24 08:23:29;;;;;;;10.80;6.00;;;;;;;8.33;100.00;100119.91;5029540;28;20042;-58
2023/04/24 08:25:58;;;;;;;11.05;6.32;;;;;;;8.30;100.00;100130.56;5029080;28;20438;-58
2023/04/24 08:28:26;;;;;;;11.25;6.40;;;;;;;8.27;100.00;100129.00;5032212;28;20385;-58
2023/04/24 08:30:55;;;;;;;12.18;6.22;;;;;;;8.20;100.00;100145.25;5028998;28;20064;-58
2023/04/24 08:33:26;;;;;;;13.70;6.93;;;;;;;8.20;100.00;100153.09;5029988;28;20115;-54
2023/04/24 08:35:55;;;;;;;12.68;6.90;;;;;;;8.19;100.00;100157.47;5032726;28;20056;-54
2023/04/24 08:38:24;;;;;;;10.95;6.75;;;;;;;8.15;100.00;100168.28;5032426;28;20389;-53
2023/04/24 08:40:53;;;;;;;12.10;6.95;;;;;;;8.16;100.00;100176.03;5032549;28;20076;-53
2023/04/24 08:43:23;;;;;;;11.13;7.30;;;;;;;8.16;100.00;100176.03;5032566;28;20524;-54
2023/04/24 08:45:51;;;;;;;14.95;7.55;;;;;;;8.12;100.00;100178.00;5032606;28;20049;-54
2023/04/24 08:48:23;;;;;;;15.85;7.82;;;;;;;8.07;100.00;100190.59;5032493;28;20049;-54
2023/04/24 08:51:01;;;;;;;12.13;7.80;;;;;;;8.03;100.00;100191.72;5032436;28;20388;-58
2023/04/24 08:53:34;;;;;;;17.20;8.85;;;;;;;8.11;100.00;100194.69;5031012;28;20061;-58
2023/04/24 08:56:02;;;;;;;15.65;8.57;;;;;;;8.15;100.00;100203.16;5028515;28;20049;-58
2023/04/24 08:58:32;;;;;;;13.50;8.52;;;;;;;8.10;100.00;100211.31;5030673;28;20045;-53
2023/04/24 09:01:01;;;;;;;15.82;8.88;;;;;;;8.22;100.00;100214.06;5032165;28;20103;-54
2023/04/24 09:03:30;;;;;;;13.73;7.78;;;;;;;8.26;100.00;100216.41;5032274;28;20057;-58
2023/04/24 09:06:01;;;;;;;14.02;8.30;;;;;;;8.29;100.00;100215.38;5032317;28;20366;-58
2023/04/24 09:08:30;;;;;;;12.93;6.45;;;;;;;8.26;100.00;100228.66;5032362;28;20081;-58
2023/04/24 09:11:01;;;;;;;11.32;5.63;;;;;;;8.18;100.00;100230.94;5032229;28;20073;-58
2023/04/24 09:13:31;;;;;;;12.35;5.68;;;;;;;8.21;100.00;100230.75;5027850;28;20054;-58
2023/04/24 09:16:00;;;;;;;12.43;6.25;;;;;;;8.22;100.00;100228.03;5028464;28;20154;-58
2023/04/24 09:18:28;;;;;;;12.20;5.03;;;;;;;8.09;100.00;100248.91;5031012;28;20529;-54
2023/04/24 09:21:02;;;;;;;10.23;4.35;;;;;;;8.04;100.00;100265.88;5030285;28;20048;-53
2023/04/24 09:23:31;;;;;;;10.00;4.00;;;;;;;7.95;100.00;100265.53;5030629;28;20084;-58
2023/04/24 09:26:01;;;;;;;15.95;4.55;;;;;;;7.94;100.00;100274.31;5035105;28;20491;-59
2023/04/24 09:28:32;;;;;;;8.55;4.30;;;;;;;8.04;100.00;100276.34;5035772;28;20069;-58
2023/04/24 09:31:04;;;;;;;12.48;4.13;;;;;;;8.15;100.00;100284.34;5035850;28;20041;-59
2023/04/24 09:33:33;;;;;;;12.02;4.10;;;;;;;8.18;100.00;100288.56;5034056;28;20053;-55
2023/04/24 09:36:02;;;;;;;10.13;3.20;;;;;;;8.09;100.00;100290.00;5035500;28;20049;-53
2023/04/24 09:38:36;;;;;;;11.45;3.45;;;;;;;8.17;100.00;100295.59;5035628;28;20511;-54
2023/04/24 09:41:06;;;;;;;10.65;3.55;;;;;;;8.25;100.00;100302.97;5035633;28;20146;-55
2023/04/24 09:43:35;;;;;;;14.23;3.17;;;;;;;8.37;100.00;100307.41;5035537;28;20048;-55
2023/04/24 09:46:07;;;;;;;9.07;3.40;;;;;;;8.38;100.00;100306.47;5033654;28;20049;-58
2023/04/24 09:48:36;;;;;;;11.52;3.65;;;;;;;8.35;100.00;100316.31;5032215;28;20095;-59
2023/04/24 09:51:10;;;;;;;13.90;3.75;;;;;;;8.28;100.00;100319.31;5032684;28;20049;-59
2023/04/24 09:53:39;;;;;;;8.82;2.80;;;;;;;8.36;100.00;100324.06;5035292;28;20053;-59
2023/04/24 09:56:09;;;;;;;11.73;3.15;;;;;;;8.35;100.00;100332.88;5034239;28;20088;-59
2023/04/24 09:58:38;;;;;;;9.40;2.83;;;;;;;8.48;100.00;100329.50;5031562;28;20042;-59
2023/04/24 10:01:06;;;;;;;10.43;2.85;;;;;;;8.48;100.00;100346.06;5031561;28;20041;-59
2023/04/24 10:03:36;;;;;;;13.48;3.53;;;;;;;8.61;100.00;100348.72;5033465;28;20056;-59
2023/04/24 10:06:08;;;;;;;14.32;3.58;;;;;;;8.68;100.00;100357.03;5035412;28;20492;-59
2023/04/24 10:08:38;;;;;;;14.05;2.67;;;;;;;8.72;100.00;100353.28;5035293;28;20500;-59
2023/04/24 10:11:07;;;;;;;17.67;3.53;;;;;;;8.82;100.00;100359.63;5033312;28;20033;-59
2023/04/24 10:13:37;;;;;;;12.50;2.92;;;;;;;8.95;100.00;100363.09;5030513;28;20060;-59
2023/04/24 10:16:05;;;;;;;12.10;2.72;;;;;;;9.00;100.00;100367.19;5033906;28;20045;-60
2023/04/24 10:18:35;;;;;;;9.13;2.80;;;;;;;9.19;100.00;100357.19;5034884;28;20120;-59
2023/04/24 10:21:04;;;;;;;12.93;2.55;;;;;;;9.31;100.00;100363.34;5034719;28;20041;-59
2023/04/24 10:23:34;;;;;;;13.40;2.60;;;;;;;9.45;100.00;100365.91;5034967;28;20532;-60
2023/04/24 10:26:03;;;;;;;13.05;3.30;;;;;;;9.48;100.00;100363.06;5032513;28;20052;-59
2023/04/24 10:28:33;;;;;;;10.85;2.58;;;;;;;9.73;100.00;100364.00;5030557;28;20095;-60
2023/04/24 10:31:01;;;;;;;9.75;2.85;;;;;;;10.10;100.00;100368.47;5033849;28;20055;-59
2023/04/24 10:33:31;;;;;;;7.70;2.28;;;;;;;10.13;100.00;100369.09;5034409;28;20076;-59
2023/04/24 10:36:00;;;;;;;10.18;2.85;;;;;;;10.35;100.00;100382.53;5032725;28;20048;-59
2023/04/24 10:38:30;;;;;;;10.88;2.70;;;;;;;10.52;100.00;100384.78;5030330;28;20131;-60
2023/04/24 10:41:09;;;;;;;10.88;3.53;;;;;;;10.75;100.00;100369.97;5030382;28;20049;-60
2023/04/24 10:43:37;;;;;;;7.18;2.67;;;;;;;10.90;100.00;100381.13;5029251;28;20140;-59
2023/04/24 10:46:09;;;;;;;9.32;2.80;;;;;;;11.07;100.00;100393.06;5034566;28;20045;-61
2023/04/24 10:48:44;;;;;;;;;;;;;;;10.92;100.00;100384.50;5032876;28;20476;-60
2023/04/24 10:51:13;;;;;;;6.10;2.33;;;;;;;10.61;100.00;100397.28;5029422;28;20016;-60
2023/04/24 10:53:42;;;;;;;11.02;2.50;;;;;;;10.73;100.00;100394.69;5030244;28;20124;-59
2023/04/24 10:56:12;;;;;;;13.55;2.55;;;;;;;10.69;100.00;100409.00;5030383;28;20603;-60
2023/04/24 10:58:44;;;;;;;8.20;2.50;;;;;;;10.71;100.00;100400.06;5029971;28;20091;-59
2023/04/24 11:01:24;;;;;;;;;;;;;;;10.85;100.00;100412.19;5032580;28;20400;-60
2023/04/24 11:03:56;;;;;;;6.75;2.33;;;;;;;11.05;100.00;100423.91;5028487;28;19921;-59
2023/04/24 11:06:32;;;;;;;8.43;1.90;;;;;;;11.10;100.00;100428.84;5029507;28;20105;-60
2023/04/24 11:09:05;;;;;;;7.05;2.10;;;;;;;11.10;100.00;100427.03;5030155;28;20413;-59
2023/04/24 11:11:37;;;;;;;9.32;2.35;;;;;;;11.16;100.00;100423.09;5029387;28;20045;-61
2023/04/24 11:14:11;;;;;;;4.65;1.60;;;;;;;11.20;100.00;100427.19;5029131;28;20413;-60
2023/04/24 11:16:46;;;;;;;6.45;1.75;;;;;;;10.90;100.00;100435.56;5029546;28;20049;-60
2023/04/24 11:19:24;;;;;;;7.93;1.65;;;;;;;10.72;100.00;100435.94;5029001;28;20417;-61
2023/04/24 11:21:59;;;;;;;4.97;1.50;;;;;;;10.62;100.00;100438.41;5029334;28;20083;-61
2023/04/24 11:24:40;;;;;;;7.60;1.33;;;;;;;10.70;100.00;100448.34;5029450;28;20152;-61
2023/04/24 11:27:15;;;;;;;6.10;1.73;;;;;;;10.78;100.00;100445.19;5029110;28;20492;-60
2023/04/24 11:29:45;;;;;;;5.22;1.42;;;;;;;10.66;100.00;100452.16;5029967;28;20053;-60